sensor_id;sensor_type;location;lat;lon;timestamp;temperature;humidity
30893;DHT22;17595;50.884;4.346;2024-03-23T00:54:23;10.20;99.90
30893;DHT22;17595;50.884;4.346;2024-03-23T00:56:48;10.30;99.90
30893;DHT22;17595;50.884;4.346;2024-03-23T00:59:14;10.10;99.90
30893;DHT22;17595;50.884;4.346;2024-03-23T01:01:40;10.10;99.90
30893;DHT22;17595;50.884;4.346;2024-03-23T01:04:05;10.10;99.90
30893;DHT22;17595;50.884;4.346;2024-03-23T01:06:31;10.20;99.90
30893;DHT22;17595;50.884;4.346;2024-03-23T01:08:56;10.10;99.90
30893;DHT22;17595;50.884;4.346;2024-03-23T01:11:22;10.20;99.90
30893;DHT22;17595;50.884;4.346;2024-03-23T01:13:48;10.20;99.90
30893;DHT22;17595;50.884;4.346;2024-03-23T01:16:13;10.30;99.90
30893;DHT22;17595;50.884;4.346;2024-03-23T01:18:39;10.40;99.90
30893;DHT22;17595;50.884;4.346;2024-03-23T01:21:05;10.50;99.90
30893;DHT22;17595;50.884;4.346;2024-03-23T01:23:30;10.50;99.90
30893;DHT22;17595;50.884;4.346;2024-03-23T01:25:56;10.40;99.90
30893;DHT22;17595;50.884;4.346;2024-03-23T01:28:22;10.30;99.90
30893;DHT22;17595;50.884;4.346;2024-03-23T01:30:48;10.30;99.90
30893;DHT22;17595;50.884;4.346;2024-03-23T01:33:14;10.20;99.90
30893;DHT22;17595;50.884;4.346;2024-03-23T01:35:40;10.20;99.90
30893;DHT22;17595;50.884;4.346;2024-03-23T01:38:06;10.20;99.90
30893;DHT22;17595;50.884;4.346;2024-03-23T01:40:32;10.20;99.90
30893;DHT22;17595;50.884;4.346;2024-03-23T01:42:58;10.20;99.90
30893;DHT22;17595;50.884;4.346;2024-03-23T01:45:27;10.30;99.90
30893;DHT22;17595;50.884;4.346;2024-03-23T01:47:53;10.30;99.90
30893;DHT22;17595;50.884;4.346;2024-03-23T01:50:22;10.30;99.90
30893;DHT22;17595;50.884;4.346;2024-03-23T01:52:49;10.30;99.90
30893;DHT22;17595;50.884;4.346;2024-03-23T01:55:15;10.30;99.90
30893;DHT22;17595;50.884;4.346;2024-03-23T01:57:41;10.30;99.90
30893;DHT22;17595;50.884;4.346;2024-03-23T02:00:07;10.40;99.90
30893;DHT22;17595;50.884;4.346;2024-03-23T02:02:33;10.30;99.90
30893;DHT22;17595;50.884;4.346;2024-03-23T02:04:59;10.30;99.90
30893;DHT22;17595;50.884;4.346;2024-03-23T02:07:25;10.30;99.90
30893;DHT22;17595;50.884;4.346;2024-03-23T02:09:53;10.30;99.90
30893;DHT22;17595;50.884;4.346;2024-03-23T02:12:20;10.30;99.90
30893;DHT22;17595;50.884;4.346;2024-03-23T02:14:46;10.10;99.90
30893;DHT22;17595;50.884;4.346;2024-03-23T02:17:12;10.10;99.90
30893;DHT22;17595;50.884;4.346;2024-03-23T02:19:38;10.10;99.90
30893;DHT22;17595;50.884;4.346;2024-03-23T02:22:04;10.00;99.90
30893;DHT22;17595;50.884;4.346;2024-03-23T02:24:30;9.90;99.90
30893;DHT22;17595;50.884;4.346;2024-03-23T02:26:55;9.70;99.90
30893;DHT22;17595;50.884;4.346;2024-03-23T02:29:21;9.60;99.90
30893;DHT22;17595;50.884;4.346;2024-03-23T02:31:46;9.60;99.90
30893;DHT22;17595;50.884;4.346;2024-03-23T02:34:12;9.50;99.90
30893;DHT22;17595;50.884;4.346;2024-03-23T02:36:38;9.50;99.90
30893;DHT22;17595;50.884;4.346;2024-03-23T02:39:03;9.40;99.90
30893;DHT22;17595;50.884;4.346;2024-03-23T02:41:29;9.50;99.90
30893;DHT22;17595;50.884;4.346;2024-03-23T02:43:54;9.60;99.90
30893;DHT22;17595;50.884;4.346;2024-03-23T02:46:20;9.70;99.90
30893;DHT22;17595;50.884;4.346;2024-03-23T02:48:49;9.80;99.90
30893;DHT22;17595;50.884;4.346;2024-03-23T02:51:14;9.80;99.90
30893;DHT22;17595;50.884;4.346;2024-03-23T02:53:40;9.80;99.90
30893;DHT22;17595;50.884;4.346;2024-03-23T02:56:06;9.90;99.90
30893;DHT22;17595;50.884;4.346;2024-03-23T02:58:32;9.90;99.90
30893;DHT22;17595;50.884;4.346;2024-03-23T03:00:58;9.90;99.90
30893;DHT22;17595;50.884;4.346;2024-03-23T03:03:24;9.90;99.90
30893;DHT22;17595;50.884;4.346;2024-03-23T03:05:55;9.80;99.90
30893;DHT22;17595;50.884;4.346;2024-03-23T03:08:21;9.70;99.90
30893;DHT22;17595;50.884;4.346;2024-03-23T03:10:47;9.60;99.90
30893;DHT22;17595;50.884;4.346;2024-03-23T03:13:13;9.50;99.90
30893;DHT22;17595;50.884;4.346;2024-03-23T03:15:43;9.60;99.90
30893;DHT22;17595;50.884;4.346;2024-03-23T03:18:08;9.70;99.90
30893;DHT22;17595;50.884;4.346;2024-03-23T03:20:40;9.80;99.90
30893;DHT22;17595;50.884;4.346;2024-03-23T03:23:06;9.80;99.90
30893;DHT22;17595;50.884;4.346;2024-03-23T03:25:32;9.80;99.90
30893;DHT22;17595;50.884;4.346;2024-03-23T03:27:57;9.90;99.90
30893;DHT22;17595;50.884;4.346;2024-03-23T03:30:23;9.80;99.90
30893;DHT22;17595;50.884;4.346;2024-03-23T03:32:49;9.70;99.90
30893;DHT22;17595;50.884;4.346;2024-03-23T03:35:15;9.70;99.90
30893;DHT22;17595;50.884;4.346;2024-03-23T03:37:41;9.70;99.90
30893;DHT22;17595;50.884;4.346;2024-03-23T03:40:07;9.60;99.90
30893;DHT22;17595;50.884;4.346;2024-03-23T03:42:34;9.70;99.90
30893;DHT22;17595;50.884;4.346;2024-03-23T03:45:00;9.80;99.90
30893;DHT22;17595;50.884;4.346;2024-03-23T03:47:26;9.70;99.90
30893;DHT22;17595;50.884;4.346;2024-03-23T03:49:51;9.80;99.90
30893;DHT22;17595;50.884;4.346;2024-03-23T03:52:17;9.80;99.90
30893;DHT22;17595;50.884;4.346;2024-03-23T03:54:43;9.80;99.90
30893;DHT22;17595;50.884;4.346;2024-03-23T03:57:08;9.80;99.90
30893;DHT22;17595;50.884;4.346;2024-03-23T03:59:34;9.80;99.90
30893;DHT22;17595;50.884;4.346;2024-03-23T04:02:00;9.70;99.90
30893;DHT22;17595;50.884;4.346;2024-03-23T04:04:25;9.60;99.90
30893;DHT22;17595;50.884;4.346;2024-03-23T04:07:01;9.50;99.90
30893;DHT22;17595;50.884;4.346;2024-03-23T04:09:27;9.50;99.90
30893;DHT22;17595;50.884;4.346;2024-03-23T04:11:52;9.30;99.90
30893;DHT22;17595;50.884;4.346;2024-03-23T04:14:18;9.20;99.90
30893;DHT22;17595;50.884;4.346;2024-03-23T04:16:44;9.30;99.90
30893;DHT22;17595;50.884;4.346;2024-03-23T04:19:09;9.20;99.90
30893;DHT22;17595;50.884;4.346;2024-03-23T04:21:37;9.30;99.90
30893;DHT22;17595;50.884;4.346;2024-03-23T04:24:03;9.40;99.90
30893;DHT22;17595;50.884;4.346;2024-03-23T04:26:29;9.30;99.90
30893;DHT22;17595;50.884;4.346;2024-03-23T04:28:54;9.40;99.90
30893;DHT22;17595;50.884;4.346;2024-03-23T04:31:20;9.30;99.90
30893;DHT22;17595;50.884;4.346;2024-03-23T04:33:45;9.30;99.90
30893;DHT22;17595;50.884;4.346;2024-03-23T04:36:11;9.30;99.90
30893;DHT22;17595;50.884;4.346;2024-03-23T04:38:37;9.10;99.90
30893;DHT22;17595;50.884;4.346;2024-03-23T04:41:02;8.90;99.90
30893;DHT22;17595;50.884;4.346;2024-03-23T04:43:28;8.90;99.90
30893;DHT22;17595;50.884;4.346;2024-03-23T04:45:54;8.90;99.90
30893;DHT22;17595;50.884;4.346;2024-03-23T04:48:21;8.90;99.90
30893;DHT22;17595;50.884;4.346;2024-03-23T04:50:54;8.80;99.90
30893;DHT22;17595;50.884;4.346;2024-03-23T04:53:21;8.80;99.90
30893;DHT22;17595;50.884;4.346;2024-03-23T04:55:46;8.80;99.90
30893;DHT22;17595;50.884;4.346;2024-03-23T04:58:12;8.90;99.90
30893;DHT22;17595;50.884;4.346;2024-03-23T05:00:38;9.00;99.90
30893;DHT22;17595;50.884;4.346;2024-03-23T05:03:04;9.00;99.90
30893;DHT22;17595;50.884;4.346;2024-03-23T05:05:30;9.00;99.90
30893;DHT22;17595;50.884;4.346;2024-03-23T05:07:55;9.00;99.90
30893;DHT22;17595;50.884;4.346;2024-03-23T05:10:21;9.10;99.90
30893;DHT22;17595;50.884;4.346;2024-03-23T05:12:47;9.10;99.90
30893;DHT22;17595;50.884;4.346;2024-03-23T05:15:12;9.20;99.90
30893;DHT22;17595;50.884;4.346;2024-03-23T05:17:38;9.20;99.90
30893;DHT22;17595;50.884;4.346;2024-03-23T05:20:05;9.20;99.90
30893;DHT22;17595;50.884;4.346;2024-03-23T05:22:35;9.10;99.90
30893;DHT22;17595;50.884;4.346;2024-03-23T05:25:01;9.00;99.90
30893;DHT22;17595;50.884;4.346;2024-03-23T05:27:30;9.00;99.90
30893;DHT22;17595;50.884;4.346;2024-03-23T05:29:56;9.10;99.90
30893;DHT22;17595;50.884;4.346;2024-03-23T05:32:22;9.20;99.90
30893;DHT22;17595;50.884;4.346;2024-03-23T05:34:48;9.20;99.90
30893;DHT22;17595;50.884;4.346;2024-03-23T05:37:15;9.20;99.90
30893;DHT22;17595;50.884;4.346;2024-03-23T05:39:41;9.10;99.90
30893;DHT22;17595;50.884;4.346;2024-03-23T05:42:07;9.00;99.90
30893;DHT22;17595;50.884;4.346;2024-03-23T05:44:33;8.90;99.90
30893;DHT22;17595;50.884;4.346;2024-03-23T05:46:59;8.90;99.90
30893;DHT22;17595;50.884;4.346;2024-03-23T05:49:24;9.00;99.90
30893;DHT22;17595;50.884;4.346;2024-03-23T05:51:50;9.10;99.90
30893;DHT22;17595;50.884;4.346;2024-03-23T05:54:16;9.10;99.90
30893;DHT22;17595;50.884;4.346;2024-03-23T05:56:41;8.70;99.90
30893;DHT22;17595;50.884;4.346;2024-03-23T05:59:07;8.60;99.90
30893;DHT22;17595;50.884;4.346;2024-03-23T06:01:33;8.80;99.90
30893;DHT22;17595;50.884;4.346;2024-03-23T06:03:59;8.80;99.90
30893;DHT22;17595;50.884;4.346;2024-03-23T06:06:26;8.70;99.90
30893;DHT22;17595;50.884;4.346;2024-03-23T06:08:52;8.60;99.90
30893;DHT22;17595;50.884;4.346;2024-03-23T06:11:18;8.80;99.90
30893;DHT22;17595;50.884;4.346;2024-03-23T06:13:43;8.80;99.90
30893;DHT22;17595;50.884;4.346;2024-03-23T06:16:09;8.80;99.90
30893;DHT22;17595;50.884;4.346;2024-03-23T06:18:35;8.70;99.90
30893;DHT22;17595;50.884;4.346;2024-03-23T06:21:01;8.80;99.90
30893;DHT22;17595;50.884;4.346;2024-03-23T06:23:27;8.80;99.90
30893;DHT22;17595;50.884;4.346;2024-03-23T06:25:52;8.80;99.90
30893;DHT22;17595;50.884;4.346;2024-03-23T06:28:18;8.90;99.90
30893;DHT22;17595;50.884;4.346;2024-03-23T06:30:44;8.90;99.90
30893;DHT22;17595;50.884;4.346;2024-03-23T06:33:09;8.90;99.90
30893;DHT22;17595;50.884;4.346;2024-03-23T06:35:35;9.00;99.90
30893;DHT22;17595;50.884;4.346;2024-03-23T06:38:00;9.10;99.90
30893;DHT22;17595;50.884;4.346;2024-03-23T06:40:26;9.20;99.90
30893;DHT22;17595;50.884;4.346;2024-03-23T06:42:52;9.30;99.90
30893;DHT22;17595;50.884;4.346;2024-03-23T06:45:18;9.30;99.90
30893;DHT22;17595;50.884;4.346;2024-03-23T06:47:48;9.10;99.90
30893;DHT22;17595;50.884;4.346;2024-03-23T06:50:15;8.90;99.90
30893;DHT22;17595;50.884;4.346;2024-03-23T06:52:40;8.80;99.90
30893;DHT22;17595;50.884;4.346;2024-03-23T06:55:06;8.70;99.90
30893;DHT22;17595;50.884;4.346;2024-03-23T06:57:32;8.80;99.90
30893;DHT22;17595;50.884;4.346;2024-03-23T06:59:57;9.00;99.90
30893;DHT22;17595;50.884;4.346;2024-03-23T07:02:23;8.80;99.90
30893;DHT22;17595;50.884;4.346;2024-03-23T07:04:49;8.70;99.90
30893;DHT22;17595;50.884;4.346;2024-03-23T07:07:14;8.60;99.90
30893;DHT22;17595;50.884;4.346;2024-03-23T07:09:40;8.30;99.90
30893;DHT22;17595;50.884;4.346;2024-03-23T07:12:06;8.30;99.90
30893;DHT22;17595;50.884;4.346;2024-03-23T07:14:32;8.10;99.90
30893;DHT22;17595;50.884;4.346;2024-03-23T07:16:57;8.20;99.90
30893;DHT22;17595;50.884;4.346;2024-03-23T07:19:23;8.30;99.90
30893;DHT22;17595;50.884;4.346;2024-03-23T07:21:50;8.40;99.90
30893;DHT22;17595;50.884;4.346;2024-03-23T07:24:15;8.40;99.90
30893;DHT22;17595;50.884;4.346;2024-03-23T07:26:41;8.40;99.90
30893;DHT22;17595;50.884;4.346;2024-03-23T07:29:07;8.10;99.90
30893;DHT22;17595;50.884;4.346;2024-03-23T07:31:33;8.10;99.90
30893;DHT22;17595;50.884;4.346;2024-03-23T07:33:58;8.20;99.90
30893;DHT22;17595;50.884;4.346;2024-03-23T07:36:24;8.30;99.90
30893;DHT22;17595;50.884;4.346;2024-03-23T07:38:51;8.50;99.90
30893;DHT22;17595;50.884;4.346;2024-03-23T07:41:18;8.70;99.90
30893;DHT22;17595;50.884;4.346;2024-03-23T07:43:45;8.80;99.90
30893;DHT22;17595;50.884;4.346;2024-03-23T07:46:11;8.90;99.90
30893;DHT22;17595;50.884;4.346;2024-03-23T07:48:38;8.90;99.90
30893;DHT22;17595;50.884;4.346;2024-03-23T07:53:34;9.00;99.90
30893;DHT22;17595;50.884;4.346;2024-03-23T07:56:08;9.20;99.90
30893;DHT22;17595;50.884;4.346;2024-03-23T07:58:35;9.20;99.90
30893;DHT22;17595;50.884;4.346;2024-03-23T08:01:28;9.30;99.90
30893;DHT22;17595;50.884;4.346;2024-03-23T08:03:53;9.30;99.90
30893;DHT22;17595;50.884;4.346;2024-03-23T08:06:20;9.10;99.90
30893;DHT22;17595;50.884;4.346;2024-03-23T08:08:47;8.90;99.90
30893;DHT22;17595;50.884;4.346;2024-03-23T08:11:13;9.00;99.90
30893;DHT22;17595;50.884;4.346;2024-03-23T08:13:41;9.20;99.90
30893;DHT22;17595;50.884;4.346;2024-03-23T08:16:07;9.30;99.90
30893;DHT22;17595;50.884;4.346;2024-03-23T08:18:34;9.30;99.90
30893;DHT22;17595;50.884;4.346;2024-03-23T08:21:04;9.50;99.90
30893;DHT22;17595;50.884;4.346;2024-03-23T08:23:34;9.60;99.90
30893;DHT22;17595;50.884;4.346;2024-03-23T08:26:02;9.40;99.90
30893;DHT22;17595;50.884;4.346;2024-03-23T08:28:28;9.40;99.90
30893;DHT22;17595;50.884;4.346;2024-03-23T08:30:55;9.40;99.90
30893;DHT22;17595;50.884;4.346;2024-03-23T08:33:22;9.40;99.90
30893;DHT22;17595;50.884;4.346;2024-03-23T08:35:55;9.40;99.90
30893;DHT22;17595;50.884;4.346;2024-03-23T08:38:22;9.50;99.90
30893;DHT22;17595;50.884;4.346;2024-03-23T08:40:56;9.50;99.90
30893;DHT22;17595;50.884;4.346;2024-03-23T08:43:21;9.40;99.90
30893;DHT22;17595;50.884;4.346;2024-03-23T08:45:47;9.30;99.90
30893;DHT22;17595;50.884;4.346;2024-03-23T08:48:12;9.20;99.90
30893;DHT22;17595;50.884;4.346;2024-03-23T08:50:38;9.20;99.90
30893;DHT22;17595;50.884;4.346;2024-03-23T08:53:04;9.20;99.90
30893;DHT22;17595;50.884;4.346;2024-03-23T08:55:30;9.10;99.90
30893;DHT22;17595;50.884;4.346;2024-03-23T08:57:55;9.10;99.90
30893;DHT22;17595;50.884;4.346;2024-03-23T09:00:21;9.20;99.90
30893;DHT22;17595;50.884;4.346;2024-03-23T09:02:50;9.30;99.90
30893;DHT22;17595;50.884;4.346;2024-03-23T09:05:16;9.50;99.90
30893;DHT22;17595;50.884;4.346;2024-03-23T09:07:42;9.60;99.90
30893;DHT22;17595;50.884;4.346;2024-03-23T09:10:08;9.60;99.90
30893;DHT22;17595;50.884;4.346;2024-03-23T09:12:33;9.50;99.90
30893;DHT22;17595;50.884;4.346;2024-03-23T09:14:59;9.40;99.90
30893;DHT22;17595;50.884;4.346;2024-03-23T09:17:25;9.50;99.90
30893;DHT22;17595;50.884;4.346;2024-03-23T09:19:50;9.30;99.90
30893;DHT22;17595;50.884;4.346;2024-03-23T09:22:16;9.30;99.90
30893;DHT22;17595;50.884;4.346;2024-03-23T09:24:41;9.20;99.90
30893;DHT22;17595;50.884;4.346;2024-03-23T09:27:07;9.10;99.90
30893;DHT22;17595;50.884;4.346;2024-03-23T09:29:33;9.10;99.90
30893;DHT22;17595;50.884;4.346;2024-03-23T09:31:59;9.20;99.90
30893;DHT22;17595;50.884;4.346;2024-03-23T09:34:24;9.20;99.90
30893;DHT22;17595;50.884;4.346;2024-03-23T09:36:53;9.40;99.90
30893;DHT22;17595;50.884;4.346;2024-03-23T09:39:19;9.40;99.90
30893;DHT22;17595;50.884;4.346;2024-03-23T09:41:45;9.40;99.90
30893;DHT22;17595;50.884;4.346;2024-03-23T09:44:11;9.50;99.90
30893;DHT22;17595;50.884;4.346;2024-03-23T09:46:37;9.60;99.90
30893;DHT22;17595;50.884;4.346;2024-03-23T09:49:07;9.50;99.90
30893;DHT22;17595;50.884;4.346;2024-03-23T09:51:38;9.80;99.90
30893;DHT22;17595;50.884;4.346;2024-03-23T09:54:04;9.90;99.90
30893;DHT22;17595;50.884;4.346;2024-03-23T09:56:29;9.90;99.90
30893;DHT22;17595;50.884;4.346;2024-03-23T09:59:05;10.00;99.90
30893;DHT22;17595;50.884;4.346;2024-03-23T10:01:32;10.10;99.90
30893;DHT22;17595;50.884;4.346;2024-03-23T10:03:57;10.10;99.90
30893;DHT22;17595;50.884;4.346;2024-03-23T10:06:23;9.90;99.90
30893;DHT22;17595;50.884;4.346;2024-03-23T10:08:51;9.70;99.90
30893;DHT22;17595;50.884;4.346;2024-03-23T10:11:18;9.90;99.90
30893;DHT22;17595;50.884;4.346;2024-03-23T10:13:45;9.90;99.90
30893;DHT22;17595;50.884;4.346;2024-03-23T10:16:21;10.10;99.90
30893;DHT22;17595;50.884;4.346;2024-03-23T10:18:48;10.00;99.90
30893;DHT22;17595;50.884;4.346;2024-03-23T10:21:15;9.90;99.90
30893;DHT22;17595;50.884;4.346;2024-03-23T10:23:44;9.80;99.90
30893;DHT22;17595;50.884;4.346;2024-03-23T10:26:21;9.70;99.90
30893;DHT22;17595;50.884;4.346;2024-03-23T10:28:54;9.50;99.90
30893;DHT22;17595;50.884;4.346;2024-03-23T10:31:22;9.40;99.90
30893;DHT22;17595;50.884;4.346;2024-03-23T10:33:48;9.30;99.90
30893;DHT22;17595;50.884;4.346;2024-03-23T10:36:15;9.30;99.90
30893;DHT22;17595;50.884;4.346;2024-03-23T10:38:42;9.40;99.90
30893;DHT22;17595;50.884;4.346;2024-03-23T10:41:09;9.40;99.90
30893;DHT22;17595;50.884;4.346;2024-03-23T10:43:37;9.30;99.90
30893;DHT22;17595;50.884;4.346;2024-03-23T10:46:04;9.40;99.90
30893;DHT22;17595;50.884;4.346;2024-03-23T10:48:30;9.50;99.90
30893;DHT22;17595;50.884;4.346;2024-03-23T10:50:55;9.60;99.90
30893;DHT22;17595;50.884;4.346;2024-03-23T10:53:33;9.60;99.90
30893;DHT22;17595;50.884;4.346;2024-03-23T10:55:59;9.60;99.90
30893;DHT22;17595;50.884;4.346;2024-03-23T10:58:42;9.60;99.90
30893;DHT22;17595;50.884;4.346;2024-03-23T11:01:13;9.70;99.90
30893;DHT22;17595;50.884;4.346;2024-03-23T11:03:44;9.80;99.90
30893;DHT22;17595;50.884;4.346;2024-03-23T11:06:10;9.80;99.90
30893;DHT22;17595;50.884;4.346;2024-03-23T11:08:39;9.70;99.90
30893;DHT22;17595;50.884;4.346;2024-03-23T11:13:41;9.50;99.90
30893;DHT22;17595;50.884;4.346;2024-03-23T11:16:28;9.60;99.90
30893;DHT22;17595;50.884;4.346;2024-03-23T11:19:36;9.60;99.90
30893;DHT22;17595;50.884;4.346;2024-03-23T11:22:02;9.60;99.90
30893;DHT22;17595;50.884;4.346;2024-03-23T11:24:29;9.60;99.90
30893;DHT22;17595;50.884;4.346;2024-03-23T11:26:55;9.70;99.90
30893;DHT22;17595;50.884;4.346;2024-03-23T11:29:20;9.80;99.90
30893;DHT22;17595;50.884;4.346;2024-03-23T11:31:51;9.80;99.90
30893;DHT22;17595;50.884;4.346;2024-03-23T11:34:17;9.80;99.90
30893;DHT22;17595;50.884;4.346;2024-03-23T11:36:44;10.00;99.90
30893;DHT22;17595;50.884;4.346;2024-03-23T11:39:19;10.20;99.90
30893;DHT22;17595;50.884;4.346;2024-03-23T11:41:56;10.40;99.90
30893;DHT22;17595;50.884;4.346;2024-03-23T11:44:25;10.60;99.90
30893;DHT22;17595;50.884;4.346;2024-03-23T11:46:51;10.70;99.90
30893;DHT22;17595;50.884;4.346;2024-03-23T11:49:23;10.90;99.90
30893;DHT22;17595;50.884;4.346;2024-03-23T11:51:50;11.00;99.90
30893;DHT22;17595;50.884;4.346;2024-03-23T11:54:16;10.90;99.90
30893;DHT22;17595;50.884;4.346;2024-03-23T11:57:03;11.00;99.90
30893;DHT22;17595;50.884;4.346;2024-03-23T11:59:37;10.90;99.90
30893;DHT22;17595;50.884;4.346;2024-03-23T12:02:10;10.80;99.90
30893;DHT22;17595;50.884;4.346;2024-03-23T12:04:37;11.00;99.90
30893;DHT22;17595;50.884;4.346;2024-03-23T12:07:20;11.10;99.90
30893;DHT22;17595;50.884;4.346;2024-03-23T12:09:47;11.20;99.90
30893;DHT22;17595;50.884;4.346;2024-03-23T12:12:17;11.20;99.90
30893;DHT22;17595;50.884;4.346;2024-03-23T12:15:01;11.00;99.90
30893;DHT22;17595;50.884;4.346;2024-03-23T12:17:27;10.90;99.90
30893;DHT22;17595;50.884;4.346;2024-03-23T12:19:52;10.40;99.90
30893;DHT22;17595;50.884;4.346;2024-03-23T12:22:22;10.00;99.90
30893;DHT22;17595;50.884;4.346;2024-03-23T12:24:49;9.70;99.90
30893;DHT22;17595;50.884;4.346;2024-03-23T12:27:14;9.40;99.90
30893;DHT22;17595;50.884;4.346;2024-03-23T12:29:40;9.50;99.90
30893;DHT22;17595;50.884;4.346;2024-03-23T12:32:11;9.60;99.90
30893;DHT22;17595;50.884;4.346;2024-03-23T12:34:37;9.70;99.90
30893;DHT22;17595;50.884;4.346;2024-03-23T12:37:03;9.60;99.90
30893;DHT22;17595;50.884;4.346;2024-03-23T12:39:29;9.70;99.90
30893;DHT22;17595;50.884;4.346;2024-03-23T12:41:54;9.90;99.90
30893;DHT22;17595;50.884;4.346;2024-03-23T12:44:20;10.10;99.90
30893;DHT22;17595;50.884;4.346;2024-03-23T12:46:46;10.20;99.90
30893;DHT22;17595;50.884;4.346;2024-03-23T12:49:12;10.30;99.90
30893;DHT22;17595;50.884;4.346;2024-03-23T12:51:38;10.40;99.90
30893;DHT22;17595;50.884;4.346;2024-03-23T12:54:04;10.40;99.90
30893;DHT22;17595;50.884;4.346;2024-03-23T12:56:30;10.40;99.90
30893;DHT22;17595;50.884;4.346;2024-03-23T12:58:56;10.30;99.90
30893;DHT22;17595;50.884;4.346;2024-03-23T13:01:23;10.20;99.90
30893;DHT22;17595;50.884;4.346;2024-03-23T13:03:49;10.20;99.90
30893;DHT22;17595;50.884;4.346;2024-03-23T13:06:16;10.20;99.90
30893;DHT22;17595;50.884;4.346;2024-03-23T13:08:47;10.30;99.90
30893;DHT22;17595;50.884;4.346;2024-03-23T13:11:13;10.40;99.90
30893;DHT22;17595;50.884;4.346;2024-03-23T13:13:40;10.30;99.90
30893;DHT22;17595;50.884;4.346;2024-03-23T13:16:06;10.50;99.90
30893;DHT22;17595;50.884;4.346;2024-03-23T13:18:33;10.50;99.90
30893;DHT22;17595;50.884;4.346;2024-03-23T13:20:59;10.50;99.90
30893;DHT22;17595;50.884;4.346;2024-03-23T13:23:25;10.10;99.90
30893;DHT22;17595;50.884;4.346;2024-03-23T13:25:51;9.10;99.90
30893;DHT22;17595;50.884;4.346;2024-03-23T13:28:19;8.60;99.90
30893;DHT22;17595;50.884;4.346;2024-03-23T13:30:52;8.00;99.90
30893;DHT22;17595;50.884;4.346;2024-03-23T13:33:18;7.80;99.90
30893;DHT22;17595;50.884;4.346;2024-03-23T13:35:53;7.90;99.90
30893;DHT22;17595;50.884;4.346;2024-03-23T13:38:21;7.90;99.90
30893;DHT22;17595;50.884;4.346;2024-03-23T13:40:54;8.00;99.90
30893;DHT22;17595;50.884;4.346;2024-03-23T13:43:20;8.20;99.90
30893;DHT22;17595;50.884;4.346;2024-03-23T13:45:52;8.30;99.90
30893;DHT22;17595;50.884;4.346;2024-03-23T13:48:20;8.40;99.90
30893;DHT22;17595;50.884;4.346;2024-03-23T13:50:47;8.60;99.90
30893;DHT22;17595;50.884;4.346;2024-03-23T13:53:15;8.70;99.90
30893;DHT22;17595;50.884;4.346;2024-03-23T13:55:47;8.70;99.90
30893;DHT22;17595;50.884;4.346;2024-03-23T13:58:16;8.80;99.90
30893;DHT22;17595;50.884;4.346;2024-03-23T14:00:42;8.80;99.90
30893;DHT22;17595;50.884;4.346;2024-03-23T14:03:12;8.80;99.90
30893;DHT22;17595;50.884;4.346;2024-03-23T14:05:39;8.70;99.90
30893;DHT22;17595;50.884;4.346;2024-03-23T14:08:08;8.30;99.90
30893;DHT22;17595;50.884;4.346;2024-03-23T14:10:35;7.90;99.90
30893;DHT22;17595;50.884;4.346;2024-03-23T14:13:04;7.70;99.90
30893;DHT22;17595;50.884;4.346;2024-03-23T14:15:29;7.60;99.90
30893;DHT22;17595;50.884;4.346;2024-03-23T14:17:59;7.80;99.90
30893;DHT22;17595;50.884;4.346;2024-03-23T14:20:25;8.00;99.90
30893;DHT22;17595;50.884;4.346;2024-03-23T14:22:51;8.10;99.90
30893;DHT22;17595;50.884;4.346;2024-03-23T14:25:17;8.20;99.90
30893;DHT22;17595;50.884;4.346;2024-03-23T14:27:46;8.30;99.90
30893;DHT22;17595;50.884;4.346;2024-03-23T14:30:13;8.50;99.90
30893;DHT22;17595;50.884;4.346;2024-03-23T14:32:39;8.70;99.90
30893;DHT22;17595;50.884;4.346;2024-03-23T14:35:06;8.90;99.90
30893;DHT22;17595;50.884;4.346;2024-03-23T14:37:32;9.10;99.90
30893;DHT22;17595;50.884;4.346;2024-03-23T14:39:58;9.30;99.90
30893;DHT22;17595;50.884;4.346;2024-03-23T14:42:24;9.40;99.90
30893;DHT22;17595;50.884;4.346;2024-03-23T14:44:51;9.40;99.90
30893;DHT22;17595;50.884;4.346;2024-03-23T14:47:18;9.40;99.90
30893;DHT22;17595;50.884;4.346;2024-03-23T14:49:45;9.60;99.90
30893;DHT22;17595;50.884;4.346;2024-03-23T14:52:16;9.70;99.90
30893;DHT22;17595;50.884;4.346;2024-03-23T14:54:42;9.50;99.90
30893;DHT22;17595;50.884;4.346;2024-03-23T14:57:07;9.30;99.90
30893;DHT22;17595;50.884;4.346;2024-03-23T14:59:35;9.10;99.90
30893;DHT22;17595;50.884;4.346;2024-03-23T15:02:01;9.10;99.90
30893;DHT22;17595;50.884;4.346;2024-03-23T15:04:27;9.00;99.90
30893;DHT22;17595;50.884;4.346;2024-03-23T15:06:52;9.10;99.90
30893;DHT22;17595;50.884;4.346;2024-03-23T15:09:18;9.30;99.90
30893;DHT22;17595;50.884;4.346;2024-03-23T15:11:44;9.40;99.90
30893;DHT22;17595;50.884;4.346;2024-03-23T15:14:09;9.50;99.90
30893;DHT22;17595;50.884;4.346;2024-03-23T15:16:36;9.60;99.90
30893;DHT22;17595;50.884;4.346;2024-03-23T15:19:02;9.70;99.90
30893;DHT22;17595;50.884;4.346;2024-03-23T15:21:28;9.90;99.90
30893;DHT22;17595;50.884;4.346;2024-03-23T15:23:54;9.80;99.90
30893;DHT22;17595;50.884;4.346;2024-03-23T15:26:19;9.80;99.90
30893;DHT22;17595;50.884;4.346;2024-03-23T15:28:49;9.80;99.90
30893;DHT22;17595;50.884;4.346;2024-03-23T15:31:24;9.80;99.90
30893;DHT22;17595;50.884;4.346;2024-03-23T15:33:50;9.90;99.90
30893;DHT22;17595;50.884;4.346;2024-03-23T15:36:16;9.90;99.90
30893;DHT22;17595;50.884;4.346;2024-03-23T15:38:43;10.00;99.90
30893;DHT22;17595;50.884;4.346;2024-03-23T15:41:09;10.00;99.90
30893;DHT22;17595;50.884;4.346;2024-03-23T15:43:35;10.00;99.90
30893;DHT22;17595;50.884;4.346;2024-03-23T15:46:02;10.00;99.90
30893;DHT22;17595;50.884;4.346;2024-03-23T15:48:30;10.00;99.90
30893;DHT22;17595;50.884;4.346;2024-03-23T15:50:57;9.90;99.90
30893;DHT22;17595;50.884;4.346;2024-03-23T15:53:24;9.90;99.90
30893;DHT22;17595;50.884;4.346;2024-03-23T15:56:00;10.00;99.90
30893;DHT22;17595;50.884;4.346;2024-03-23T15:58:27;10.10;99.90
30893;DHT22;17595;50.884;4.346;2024-03-23T16:00:55;10.20;99.90
30893;DHT22;17595;50.884;4.346;2024-03-23T16:03:22;10.20;99.90
30893;DHT22;17595;50.884;4.346;2024-03-23T16:05:58;10.30;99.90
30893;DHT22;17595;50.884;4.346;2024-03-23T16:08:26;10.30;99.90
30893;DHT22;17595;50.884;4.346;2024-03-23T16:10:52;10.40;99.90
30893;DHT22;17595;50.884;4.346;2024-03-23T16:13:18;10.50;99.90
30893;DHT22;17595;50.884;4.346;2024-03-23T16:15:45;10.50;99.90
30893;DHT22;17595;50.884;4.346;2024-03-23T16:18:11;10.60;99.90
30893;DHT22;17595;50.884;4.346;2024-03-23T16:20:37;10.60;99.90
30893;DHT22;17595;50.884;4.346;2024-03-23T16:23:03;10.50;99.90
30893;DHT22;17595;50.884;4.346;2024-03-23T16:25:29;10.60;99.90
30893;DHT22;17595;50.884;4.346;2024-03-23T16:27:55;10.60;99.90
30893;DHT22;17595;50.884;4.346;2024-03-23T16:30:21;10.50;99.90
30893;DHT22;17595;50.884;4.346;2024-03-23T16:32:47;10.60;99.90
30893;DHT22;17595;50.884;4.346;2024-03-23T16:35:13;10.70;99.90
30893;DHT22;17595;50.884;4.346;2024-03-23T16:37:40;10.80;99.90
30893;DHT22;17595;50.884;4.346;2024-03-23T16:40:06;10.70;99.90